sensor_id;sensor_type;location;lat;lon;timestamp;P1;durP1;ratioP1;P2;durP2;ratioP2
16242;SDS011;11719;51.052;6.982;2022-12-07T00:01:25;5.03;;;2.70;;
16242;SDS011;11719;51.052;6.982;2022-12-07T00:03:54;7.00;;;3.27;;
16242;SDS011;11719;51.052;6.982;2022-12-07T00:06:25;8.17;;;2.70;;
16242;SDS011;11719;51.052;6.982;2022-12-07T00:08:51;5.27;;;2.50;;
16242;SDS011;11719;51.052;6.982;2022-12-07T00:11:18;9.33;;;3.07;;
16242;SDS011;11719;51.052;6.982;2022-12-07T00:13:47;4.70;;;2.67;;
16242;SDS011;11719;51.052;6.982;2022-12-07T00:16:18;4.27;;;2.47;;
16242;SDS011;11719;51.052;6.982;2022-12-07T00:18:46;6.00;;;3.17;;
16242;SDS011;11719;51.052;6.982;2022-12-07T00:21:16;6.20;;;2.67;;
16242;SDS011;11719;51.052;6.982;2022-12-07T00:23:48;3.63;;;2.40;;
16242;SDS011;11719;51.052;6.982;2022-12-07T00:26:16;5.50;;;3.33;;
16242;SDS011;11719;51.052;6.982;2022-12-07T00:28:56;5.50;;;2.50;;
16242;SDS011;11719;51.052;6.982;2022-12-07T00:31:27;7.10;;;3.10;;
16242;SDS011;11719;51.052;6.982;2022-12-07T00:33:56;6.57;;;2.73;;
16242;SDS011;11719;51.052;6.982;2022-12-07T00:36:23;4.07;;;2.43;;
16242;SDS011;11719;51.052;6.982;2022-12-07T00:38:50;8.83;;;3.23;;
16242;SDS011;11719;51.052;6.982;2022-12-07T00:41:17;5.80;;;2.93;;
16242;SDS011;11719;51.052;6.982;2022-12-07T00:43:46;6.43;;;2.70;;
16242;SDS011;11719;51.052;6.982;2022-12-07T00:46:14;5.23;;;3.10;;
16242;SDS011;11719;51.052;6.982;2022-12-07T00:48:41;7.00;;;2.53;;
16242;SDS011;11719;51.052;6.982;2022-12-07T00:51:08;4.93;;;2.33;;
16242;SDS011;11719;51.052;6.982;2022-12-07T00:53:36;3.97;;;2.43;;
16242;SDS011;11719;51.052;6.982;2022-12-07T00:56:07;4.47;;;2.07;;
16242;SDS011;11719;51.052;6.982;2022-12-07T00:58:38;3.20;;;2.43;;
16242;SDS011;11719;51.052;6.982;2022-12-07T01:01:04;5.57;;;2.83;;
16242;SDS011;11719;51.052;6.982;2022-12-07T01:03:32;5.63;;;2.77;;
16242;SDS011;11719;51.052;6.982;2022-12-07T01:05:58;4.87;;;2.37;;
16242;SDS011;11719;51.052;6.982;2022-12-07T01:08:24;6.33;;;3.03;;
16242;SDS011;11719;51.052;6.982;2022-12-07T01:10:59;3.20;;;2.03;;
16242;SDS011;11719;51.052;6.982;2022-12-07T01:13:31;4.03;;;2.77;;
16242;SDS011;11719;51.052;6.982;2022-12-07T01:15:59;4.73;;;2.80;;
16242;SDS011;11719;51.052;6.982;2022-12-07T01:18:29;4.40;;;2.50;;
16242;SDS011;11719;51.052;6.982;2022-12-07T01:21:07;3.67;;;2.30;;
16242;SDS011;11719;51.052;6.982;2022-12-07T01:23:37;4.43;;;2.63;;
16242;SDS011;11719;51.052;6.982;2022-12-07T01:26:05;7.83;;;2.73;;
16242;SDS011;11719;51.052;6.982;2022-12-07T01:28:35;10.37;;;2.93;;
16242;SDS011;11719;51.052;6.982;2022-12-07T01:33:34;4.77;;;2.40;;
16242;SDS011;11719;51.052;6.982;2022-12-07T01:36:05;4.77;;;2.60;;
16242;SDS011;11719;51.052;6.982;2022-12-07T01:38:47;4.47;;;2.90;;
16242;SDS011;11719;51.052;6.982;2022-12-07T01:41:19;5.77;;;2.53;;
16242;SDS011;11719;51.052;6.982;2022-12-07T01:46:46;4.50;;;3.30;;
16242;SDS011;11719;51.052;6.982;2022-12-07T01:49:18;5.70;;;2.93;;
16242;SDS011;11719;51.052;6.982;2022-12-07T01:51:47;4.93;;;3.10;;
16242;SDS011;11719;51.052;6.982;2022-12-07T01:54:14;7.73;;;3.57;;
16242;SDS011;11719;51.052;6.982;2022-12-07T01:56:43;5.10;;;3.17;;
16242;SDS011;11719;51.052;6.982;2022-12-07T01:59:17;8.27;;;3.10;;
16242;SDS011;11719;51.052;6.982;2022-12-07T02:01:45;5.33;;;2.73;;
16242;SDS011;11719;51.052;6.982;2022-12-07T02:04:11;4.73;;;3.10;;
16242;SDS011;11719;51.052;6.982;2022-12-07T02:06:37;4.47;;;2.93;;
16242;SDS011;11719;51.052;6.982;2022-12-07T02:09:04;5.50;;;3.13;;
16242;SDS011;11719;51.052;6.982;2022-12-07T02:11:30;5.57;;;3.30;;
16242;SDS011;11719;51.052;6.982;2022-12-07T02:13:56;5.50;;;3.47;;
16242;SDS011;11719;51.052;6.982;2022-12-07T02:16:43;7.63;;;3.57;;
16242;SDS011;11719;51.052;6.982;2022-12-07T02:28:37;6.57;;;2.90;;
16242;SDS011;11719;51.052;6.982;2022-12-07T02:31:56;4.73;;;3.23;;
16242;SDS011;11719;51.052;6.982;2022-12-07T02:34:39;4.73;;;2.80;;
16242;SDS011;11719;51.052;6.982;2022-12-07T02:37:10;4.27;;;2.80;;
16242;SDS011;11719;51.052;6.982;2022-12-07T02:40:36;6.03;;;3.20;;
16242;SDS011;11719;51.052;6.982;2022-12-07T02:43:08;6.40;;;3.07;;
16242;SDS011;11719;51.052;6.982;2022-12-07T02:45:51;5.97;;;3.17;;
16242;SDS011;11719;51.052;6.982;2022-12-07T02:48:21;6.47;;;3.03;;
16242;SDS011;11719;51.052;6.982;2022-12-07T02:50:50;5.20;;;2.87;;
16242;SDS011;11719;51.052;6.982;2022-12-07T02:55:55;3.10;;;1.37;;
16242;SDS011;11719;51.052;6.982;2022-12-07T02:58:24;4.17;;;2.97;;
16242;SDS011;11719;51.052;6.982;2022-12-07T03:03:54;5.80;;;3.33;;
16242;SDS011;11719;51.052;6.982;2022-12-07T03:06:59;6.80;;;3.43;;
16242;SDS011;11719;51.052;6.982;2022-12-07T03:09:37;7.93;;;4.10;;
16242;SDS011;11719;51.052;6.982;2022-12-07T03:12:16;5.67;;;3.07;;
16242;SDS011;11719;51.052;6.982;2022-12-07T03:14:53;5.40;;;2.87;;
16242;SDS011;11719;51.052;6.982;2022-12-07T03:17:31;4.73;;;3.03;;
16242;SDS011;11719;51.052;6.982;2022-12-07T03:20:03;6.63;;;3.33;;
16242;SDS011;11719;51.052;6.982;2022-12-07T03:22:32;9.57;;;3.50;;
16242;SDS011;11719;51.052;6.982;2022-12-07T03:25:03;5.47;;;3.40;;
16242;SDS011;11719;51.052;6.982;2022-12-07T03:27:37;4.57;;;3.50;;
16242;SDS011;11719;51.052;6.982;2022-12-07T03:30:11;4.60;;;2.77;;
16242;SDS011;11719;51.052;6.982;2022-12-07T03:32:43;7.00;;;3.00;;
16242;SDS011;11719;51.052;6.982;2022-12-07T03:35:25;7.23;;;3.97;;
16242;SDS011;11719;51.052;6.982;2022-12-07T03:40:58;7.03;;;3.80;;
16242;SDS011;11719;51.052;6.982;2022-12-07T03:43:29;7.20;;;3.57;;
16242;SDS011;11719;51.052;6.982;2022-12-07T03:45:59;7.57;;;4.07;;
16242;SDS011;11719;51.052;6.982;2022-12-07T03:48:54;9.07;;;4.03;;
16242;SDS011;11719;51.052;6.982;2022-12-07T03:54:36;6.67;;;3.93;;
16242;SDS011;11719;51.052;6.982;2022-12-07T03:57:10;7.53;;;4.40;;
16242;SDS011;11719;51.052;6.982;2022-12-07T03:59:37;6.83;;;3.80;;
16242;SDS011;11719;51.052;6.982;2022-12-07T04:02:06;7.20;;;3.63;;
16242;SDS011;11719;51.052;6.982;2022-12-07T04:04:33;8.03;;;3.93;;
16242;SDS011;11719;51.052;6.982;2022-12-07T04:07:00;4.53;;;3.37;;
16242;SDS011;11719;51.052;6.982;2022-12-07T04:09:25;8.00;;;3.87;;
16242;SDS011;11719;51.052;6.982;2022-12-07T04:11:52;5.87;;;3.40;;
16242;SDS011;11719;51.052;6.982;2022-12-07T04:14:18;8.47;;;3.83;;
16242;SDS011;11719;51.052;6.982;2022-12-07T04:16:47;5.50;;;3.43;;
16242;SDS011;11719;51.052;6.982;2022-12-07T04:19:16;6.20;;;3.43;;
16242;SDS011;11719;51.052;6.982;2022-12-07T04:21:44;6.80;;;3.97;;
16242;SDS011;11719;51.052;6.982;2022-12-07T04:24:11;8.70;;;4.57;;
16242;SDS011;11719;51.052;6.982;2022-12-07T04:26:39;6.60;;;3.37;;
16242;SDS011;11719;51.052;6.982;2022-12-07T04:29:06;7.20;;;3.87;;
16242;SDS011;11719;51.052;6.982;2022-12-07T04:31:32;4.40;;;3.37;;
16242;SDS011;11719;51.052;6.982;2022-12-07T04:33:58;10.03;;;3.63;;
16242;SDS011;11719;51.052;6.982;2022-12-07T04:36:23;7.67;;;4.27;;
16242;SDS011;11719;51.052;6.982;2022-12-07T04:38:49;5.00;;;3.17;;
16242;SDS011;11719;51.052;6.982;2022-12-07T04:41:18;6.13;;;3.40;;
16242;SDS011;11719;51.052;6.982;2022-12-07T04:43:44;7.43;;;4.10;;
16242;SDS011;11719;51.052;6.982;2022-12-07T04:46:09;7.90;;;5.07;;
16242;SDS011;11719;51.052;6.982;2022-12-07T04:48:35;6.37;;;3.63;;
16242;SDS011;11719;51.052;6.982;2022-12-07T04:51:02;7.70;;;3.70;;
16242;SDS011;11719;51.052;6.982;2022-12-07T04:53:28;6.63;;;3.97;;
16242;SDS011;11719;51.052;6.982;2022-12-07T04:55:54;7.93;;;4.13;;
16242;SDS011;11719;51.052;6.982;2022-12-07T04:58:20;6.27;;;3.10;;
16242;SDS011;11719;51.052;6.982;2022-12-07T05:00:45;6.83;;;3.43;;
16242;SDS011;11719;51.052;6.982;2022-12-07T05:03:11;7.20;;;3.73;;
16242;SDS011;11719;51.052;6.982;2022-12-07T05:05:39;5.80;;;3.60;;
16242;SDS011;11719;51.052;6.982;2022-12-07T05:08:06;6.63;;;3.37;;
16242;SDS011;11719;51.052;6.982;2022-12-07T05:10:32;5.70;;;3.03;;
16242;SDS011;11719;51.052;6.982;2022-12-07T05:12:58;8.93;;;4.03;;
16242;SDS011;11719;51.052;6.982;2022-12-07T05:15:23;8.83;;;4.30;;
16242;SDS011;11719;51.052;6.982;2022-12-07T05:17:49;7.10;;;3.83;;
16242;SDS011;11719;51.052;6.982;2022-12-07T05:20:17;7.70;;;3.10;;
16242;SDS011;11719;51.052;6.982;2022-12-07T05:22:43;6.13;;;3.67;;
16242;SDS011;11719;51.052;6.982;2022-12-07T05:25:08;6.57;;;4.17;;
16242;SDS011;11719;51.052;6.982;2022-12-07T05:27:34;5.17;;;3.33;;
16242;SDS011;11719;51.052;6.982;2022-12-07T05:30:00;5.63;;;3.40;;
16242;SDS011;11719;51.052;6.982;2022-12-07T05:32:26;8.37;;;4.03;;
16242;SDS011;11719;51.052;6.982;2022-12-07T05:34:51;4.13;;;2.50;;
16242;SDS011;11719;51.052;6.982;2022-12-07T05:37:19;7.30;;;3.73;;
16242;SDS011;11719;51.052;6.982;2022-12-07T05:39:45;8.47;;;3.70;;
16242;SDS011;11719;51.052;6.982;2022-12-07T05:42:11;9.27;;;4.53;;
16242;SDS011;11719;51.052;6.982;2022-12-07T05:44:37;10.20;;;4.90;;
16242;SDS011;11719;51.052;6.982;2022-12-07T05:47:07;4.53;;;2.80;;
16242;SDS011;11719;51.052;6.982;2022-12-07T05:49:34;7.87;;;3.77;;
16242;SDS011;11719;51.052;6.982;2022-12-07T05:52:00;6.67;;;3.90;;
16242;SDS011;11719;51.052;6.982;2022-12-07T05:54:26;5.97;;;3.53;;
16242;SDS011;11719;51.052;6.982;2022-12-07T05:56:52;5.90;;;3.40;;
16242;SDS011;11719;51.052;6.982;2022-12-07T05:59:18;8.53;;;3.27;;
16242;SDS011;11719;51.052;6.982;2022-12-07T06:02:04;6.77;;;3.67;;
16242;SDS011;11719;51.052;6.982;2022-12-07T06:04:36;5.00;;;3.20;;
16242;SDS011;11719;51.052;6.982;2022-12-07T06:07:05;8.50;;;3.70;;
16242;SDS011;11719;51.052;6.982;2022-12-07T06:09:33;6.73;;;3.80;;
16242;SDS011;11719;51.052;6.982;2022-12-07T06:11:59;7.03;;;2.87;;
16242;SDS011;11719;51.052;6.982;2022-12-07T06:14:44;7.13;;;3.60;;
16242;SDS011;11719;51.052;6.982;2022-12-07T06:17:10;6.07;;;3.67;;
16242;SDS011;11719;51.052;6.982;2022-12-07T06:19:37;8.77;;;4.27;;
16242;SDS011;11719;51.052;6.982;2022-12-07T06:22:03;7.10;;;3.63;;
16242;SDS011;11719;51.052;6.982;2022-12-07T06:24:30;5.83;;;3.27;;
16242;SDS011;11719;51.052;6.982;2022-12-07T06:26:57;4.70;;;2.97;;
16242;SDS011;11719;51.052;6.982;2022-12-07T06:29:24;8.50;;;3.53;;
16242;SDS011;11719;51.052;6.982;2022-12-07T06:31:50;4.10;;;2.80;;
16242;SDS011;11719;51.052;6.982;2022-12-07T06:34:17;5.90;;;3.13;;
16242;SDS011;11719;51.052;6.982;2022-12-07T06:36:47;6.63;;;3.67;;
16242;SDS011;11719;51.052;6.982;2022-12-07T06:39:17;5.13;;;3.27;;
16242;SDS011;11719;51.052;6.982;2022-12-07T06:41:45;6.33;;;3.10;;
16242;SDS011;11719;51.052;6.982;2022-12-07T06:44:12;5.67;;;3.07;;
16242;SDS011;11719;51.052;6.982;2022-12-07T06:46:38;5.13;;;2.87;;
16242;SDS011;11719;51.052;6.982;2022-12-07T06:49:04;7.13;;;3.10;;
16242;SDS011;11719;51.052;6.982;2022-12-07T06:51:30;6.07;;;3.33;;
16242;SDS011;11719;51.052;6.982;2022-12-07T06:53:57;9.30;;;3.03;;
16242;SDS011;11719;51.052;6.982;2022-12-07T06:56:23;6.40;;;3.70;;
16242;SDS011;11719;51.052;6.982;2022-12-07T06:58:49;6.87;;;3.87;;
16242;SDS011;11719;51.052;6.982;2022-12-07T07:01:16;4.90;;;3.30;;
16242;SDS011;11719;51.052;6.982;2022-12-07T07:03:43;5.03;;;3.20;;
16242;SDS011;11719;51.052;6.982;2022-12-07T07:06:10;6.00;;;3.33;;
16242;SDS011;11719;51.052;6.982;2022-12-07T07:08:37;5.57;;;2.90;;
16242;SDS011;11719;51.052;6.982;2022-12-07T07:11:04;6.67;;;2.57;;
16242;SDS011;11719;51.052;6.982;2022-12-07T07:13:30;5.87;;;2.93;;
16242;SDS011;11719;51.052;6.982;2022-12-07T07:15:56;6.37;;;3.30;;
16242;SDS011;11719;51.052;6.982;2022-12-07T07:18:22;8.00;;;3.67;;
16242;SDS011;11719;51.052;6.982;2022-12-07T07:20:49;5.30;;;3.43;;
16242;SDS011;11719;51.052;6.982;2022-12-07T07:23:16;5.47;;;3.53;;
16242;SDS011;11719;51.052;6.982;2022-12-07T07:25:42;6.10;;;3.50;;
16242;SDS011;11719;51.052;6.982;2022-12-07T07:28:09;7.23;;;3.57;;
16242;SDS011;11719;51.052;6.982;2022-12-07T07:30:35;8.20;;;3.07;;
16242;SDS011;11719;51.052;6.982;2022-12-07T07:33:01;4.40;;;2.80;;
16242;SDS011;11719;51.052;6.982;2022-12-07T07:35:29;6.57;;;3.60;;
16242;SDS011;11719;51.052;6.982;2022-12-07T07:37:56;5.73;;;3.53;;
16242;SDS011;11719;51.052;6.982;2022-12-07T07:40:22;7.40;;;3.47;;
16242;SDS011;11719;51.052;6.982;2022-12-07T07:42:48;6.03;;;3.33;;
16242;SDS011;11719;51.052;6.982;2022-12-07T07:45:15;10.03;;;3.60;;
16242;SDS011;11719;51.052;6.982;2022-12-07T07:47:42;6.03;;;3.33;;
16242;SDS011;11719;51.052;6.982;2022-12-07T07:50:08;7.23;;;3.53;;
16242;SDS011;11719;51.052;6.982;2022-12-07T07:52:34;8.70;;;3.90;;
16242;SDS011;11719;51.052;6.982;2022-12-07T07:55:00;7.37;;;3.60;;
16242;SDS011;11719;51.052;6.982;2022-12-07T07:57:26;5.87;;;2.80;;
16242;SDS011;11719;51.052;6.982;2022-12-07T07:59:52;6.40;;;3.30;;
16242;SDS011;11719;51.052;6.982;2022-12-07T08:02:18;7.20;;;3.43;;
16242;SDS011;11719;51.052;6.982;2022-12-07T08:04:47;4.93;;;2.93;;
16242;SDS011;11719;51.052;6.982;2022-12-07T08:07:13;7.43;;;3.30;;
16242;SDS011;11719;51.052;6.982;2022-12-07T08:09:40;4.73;;;3.13;;
16242;SDS011;11719;51.052;6.982;2022-12-07T08:12:06;6.33;;;3.33;;
16242;SDS011;11719;51.052;6.982;2022-12-07T08:14:33;5.03;;;3.57;;
16242;SDS011;11719;51.052;6.982;2022-12-07T08:16:59;4.53;;;2.40;;
16242;SDS011;11719;51.052;6.982;2022-12-07T08:19:25;5.40;;;3.27;;
16242;SDS011;11719;51.052;6.982;2022-12-07T08:21:51;4.97;;;3.27;;
16242;SDS011;11719;51.052;6.982;2022-12-07T08:24:17;5.40;;;3.03;;
16242;SDS011;11719;51.052;6.982;2022-12-07T08:26:43;6.53;;;3.27;;
16242;SDS011;11719;51.052;6.982;2022-12-07T08:29:09;8.83;;;3.33;;
16242;SDS011;11719;51.052;6.982;2022-12-07T08:31:35;5.33;;;3.03;;
16242;SDS011;11719;51.052;6.982;2022-12-07T08:34:01;6.60;;;2.70;;
16242;SDS011;11719;51.052;6.982;2022-12-07T08:36:27;7.73;;;3.70;;
16242;SDS011;11719;51.052;6.982;2022-12-07T08:38:53;5.73;;;3.17;;
16242;SDS011;11719;51.052;6.982;2022-12-07T08:41:19;6.37;;;3.13;;
16242;SDS011;11719;51.052;6.982;2022-12-07T08:43:45;4.37;;;2.63;;
16242;SDS011;11719;51.052;6.982;2022-12-07T08:49:24;11.37;;;3.10;;
16242;SDS011;11719;51.052;6.982;2022-12-07T08:52:00;8.80;;;3.27;;
16242;SDS011;11719;51.052;6.982;2022-12-07T08:54:29;4.67;;;2.67;;
16242;SDS011;11719;51.052;6.982;2022-12-07T08:56:55;4.93;;;2.90;;
16242;SDS011;11719;51.052;6.982;2022-12-07T08:59:21;6.93;;;3.47;;
16242;SDS011;11719;51.052;6.982;2022-12-07T09:01:48;4.87;;;2.37;;
16242;SDS011;11719;51.052;6.982;2022-12-07T09:04:14;5.80;;;3.30;;
16242;SDS011;11719;51.052;6.982;2022-12-07T09:06:40;5.37;;;2.83;;
16242;SDS011;11719;51.052;6.982;2022-12-07T09:09:06;6.27;;;3.03;;
16242;SDS011;11719;51.052;6.982;2022-12-07T09:11:34;5.60;;;3.27;;
16242;SDS011;11719;51.052;6.982;2022-12-07T09:14:00;5.50;;;3.03;;
16242;SDS011;11719;51.052;6.982;2022-12-07T09:16:26;8.37;;;3.53;;
16242;SDS011;11719;51.052;6.982;2022-12-07T09:18:52;5.27;;;3.03;;
16242;SDS011;11719;51.052;6.982;2022-12-07T09:21:18;7.63;;;3.80;;
16242;SDS011;11719;51.052;6.982;2022-12-07T09:23:43;5.43;;;2.77;;
16242;SDS011;11719;51.052;6.982;2022-12-07T09:26:09;5.90;;;3.70;;
16242;SDS011;11719;51.052;6.982;2022-12-07T09:28:35;6.07;;;2.20;;
16242;SDS011;11719;51.052;6.982;2022-12-07T09:31:02;5.27;;;2.70;;
16242;SDS011;11719;51.052;6.982;2022-12-07T09:33:28;9.97;;;2.87;;
16242;SDS011;11719;51.052;6.982;2022-12-07T09:35:54;7.90;;;2.60;;
16242;SDS011;11719;51.052;6.982;2022-12-07T09:38:20;6.00;;;2.83;;
16242;SDS011;11719;51.052;6.982;2022-12-07T09:40:46;3.53;;;2.17;;
16242;SDS011;11719;51.052;6.982;2022-12-07T09:43:13;4.57;;;2.63;;
16242;SDS011;11719;51.052;6.982;2022-12-07T09:45:50;4.97;;;2.47;;
16242;SDS011;11719;51.052;6.982;2022-12-07T09:48:34;6.30;;;2.93;;
16242;SDS011;11719;51.052;6.982;2022-12-07T09:51:10;3.30;;;2.10;;
16242;SDS011;11719;51.052;6.982;2022-12-07T09:53:39;9.40;;;2.63;;
16242;SDS011;11719;51.052;6.982;2022-12-07T09:56:05;6.13;;;2.63;;
16242;SDS011;11719;51.052;6.982;2022-12-07T09:58:31;3.30;;;2.13;;
16242;SDS011;11719;51.052;6.982;2022-12-07T10:00:59;3.03;;;2.37;;
16242;SDS011;11719;51.052;6.982;2022-12-07T10:03:34;5.40;;;2.83;;
16242;SDS011;11719;51.052;6.982;2022-12-07T10:06:03;4.20;;;2.87;;
16242;SDS011;11719;51.052;6.982;2022-12-07T10:08:31;5.73;;;2.67;;
16242;SDS011;11719;51.052;6.982;2022-12-07T10:10:58;3.40;;;2.60;;
16242;SDS011;11719;51.052;6.982;2022-12-07T10:13:35;2.70;;;1.57;;
16242;SDS011;11719;51.052;6.982;2022-12-07T10:16:04;4.13;;;2.50;;
16242;SDS011;11719;51.052;6.982;2022-12-07T10:26:48;5.90;;;2.80;;
16242;SDS011;11719;51.052;6.982;2022-12-07T10:29:20;4.83;;;2.20;;
16242;SDS011;11719;51.052;6.982;2022-12-07T10:34:35;5.50;;;2.60;;
16242;SDS011;11719;51.052;6.982;2022-12-07T10:37:23;2.10;;;1.70;;
16242;SDS011;11719;51.052;6.982;2022-12-07T10:39:55;3.00;;;1.70;;
16242;SDS011;11719;51.052;6.982;2022-12-07T10:47:59;4.17;;;1.93;;
16242;SDS011;11719;51.052;6.982;2022-12-07T11:05:33;2.13;;;1.60;;
16242;SDS011;11719;51.052;6.982;2022-12-07T11:11:16;1.80;;;1.23;;
16242;SDS011;11719;51.052;6.982;2022-12-07T11:19:52;5.07;;;1.97;;
16242;SDS011;11719;51.052;6.982;2022-12-07T11:25:31;3.20;;;1.70;;
16242;SDS011;11719;51.052;6.982;2022-12-07T11:28:34;3.60;;;1.63;;
16242;SDS011;11719;51.052;6.982;2022-12-07T11:31:24;7.30;;;1.63;;
16242;SDS011;11719;51.052;6.982;2022-12-07T11:37:09;3.97;;;1.73;;
16242;SDS011;11719;51.052;6.982;2022-12-07T11:39:45;5.90;;;1.60;;
16242;SDS011;11719;51.052;6.982;2022-12-07T11:42:18;1.60;;;1.10;;
16242;SDS011;11719;51.052;6.982;2022-12-07T11:44:56;2.97;;;1.97;;
16242;SDS011;11719;51.052;6.982;2022-12-07T11:51:06;4.87;;;2.20;;
16242;SDS011;11719;51.052;6.982;2022-12-07T11:53:40;4.07;;;1.70;;
16242;SDS011;11719;51.052;6.982;2022-12-07T11:56:12;3.20;;;1.30;;
16242;SDS011;11719;51.052;6.982;2022-12-07T11:58:51;3.90;;;1.60;;
16242;SDS011;11719;51.052;6.982;2022-12-07T12:01:39;3.20;;;2.13;;
16242;SDS011;11719;51.052;6.982;2022-12-07T12:07:10;3.07;;;1.83;;
16242;SDS011;11719;51.052;6.982;2022-12-07T12:09:52;5.07;;;1.60;;
16242;SDS011;11719;51.052;6.982;2022-12-07T12:23:18;3.90;;;1.60;;
16242;SDS011;11719;51.052;6.982;2022-12-07T12:25:48;2.17;;;1.07;;
16242;SDS011;11719;51.052;6.982;2022-12-07T12:33:56;2.10;;;1.63;;
16242;SDS011;11719;51.052;6.982;2022-12-07T12:46:58;2.80;;;1.80;;
16242;SDS011;11719;51.052;6.982;2022-12-07T12:49:38;3.43;;;1.20;;
16242;SDS011;11719;51.052;6.982;2022-12-07T12:54:57;1.53;;;0.60;;
16242;SDS011;11719;51.052;6.982;2022-12-07T12:57:38;2.27;;;1.60;;
16242;SDS011;11719;51.052;6.982;2022-12-07T13:00:20;4.00;;;2.20;;
16242;SDS011;11719;51.052;6.982;2022-12-07T13:02:54;2.43;;;1.40;;
16242;SDS011;11719;51.052;6.982;2022-12-07T13:05:28;2.17;;;1.47;;
16242;SDS011;11719;51.052;6.982;2022-12-07T13:07:57;3.10;;;1.40;;
16242;SDS011;11719;51.052;6.982;2022-12-07T13:10:45;2.47;;;1.10;;
16242;SDS011;11719;51.052;6.982;2022-12-07T13:23:31;3.63;;;1.93;;
16242;SDS011;11719;51.052;6.982;2022-12-07T13:31:40;2.10;;;1.37;;
16242;SDS011;11719;51.052;6.982;2022-12-07T13:34:28;2.10;;;0.97;;
16242;SDS011;11719;51.052;6.982;2022-12-07T13:37:12;1.50;;;1.17;;
16242;SDS011;11719;51.052;6.982;2022-12-07T13:39:52;1.70;;;1.10;;
16242;SDS011;11719;51.052;6.982;2022-12-07T13:42:26;2.67;;;1.50;;
16242;SDS011;11719;51.052;6.982;2022-12-07T13:44:56;4.30;;;1.10;;
16242;SDS011;11719;51.052;6.982;2022-12-07T13:49:57;2.20;;;1.40;;
16242;SDS011;11719;51.052;6.982;2022-12-07T13:52:24;2.30;;;1.00;;
16242;SDS011;11719;51.052;6.982;2022-12-07T13:57:30;1.80;;;0.90;;
16242;SDS011;11719;51.052;6.982;2022-12-07T14:00:00;4.70;;;1.43;;
16242;SDS011;11719;51.052;6.982;2022-12-07T14:02:30;1.37;;;0.80;;
16242;SDS011;11719;51.052;6.982;2022-12-07T14:05:09;2.07;;;1.50;;
16242;SDS011;11719;51.052;6.982;2022-12-07T14:07:52;1.77;;;0.90;;
16242;SDS011;11719;51.052;6.982;2022-12-07T14:10:24;0.70;;;0.70;;
16242;SDS011;11719;51.052;6.982;2022-12-07T14:12:52;2.70;;;1.10;;
16242;SDS011;11719;51.052;6.982;2022-12-07T14:15:20;1.47;;;0.97;;
16242;SDS011;11719;51.052;6.982;2022-12-07T14:17:50;3.43;;;1.40;;
16242;SDS011;11719;51.052;6.982;2022-12-07T14:20:37;1.90;;;1.17;;
16242;SDS011;11719;51.052;6.982;2022-12-07T14:23:06;2.30;;;1.27;;
16242;SDS011;11719;51.052;6.982;2022-12-07T14:25:51;2.70;;;1.17;;
16242;SDS011;11719;51.052;6.982;2022-12-07T14:28:31;2.13;;;0.87;;
16242;SDS011;11719;51.052;6.982;2022-12-07T14:31:00;2.30;;;1.03;;
16242;SDS011;11719;51.052;6.982;2022-12-07T14:33:26;1.73;;;1.47;;
16242;SDS011;11719;51.052;6.982;2022-12-07T14:35:53;1.93;;;1.27;;
16242;SDS011;11719;51.052;6.982;2022-12-07T14:38:22;3.50;;;1.13;;
16242;SDS011;11719;51.052;6.982;2022-12-07T14:40:49;1.20;;;0.77;;
16242;SDS011;11719;51.052;6.982;2022-12-07T14:43:17;2.30;;;0.93;;
16242;SDS011;11719;51.052;6.982;2022-12-07T14:45:43;1.83;;;1.07;;
16242;SDS011;11719;51.052;6.982;2022-12-07T14:48:14;1.90;;;1.17;;
16242;SDS011;11719;51.052;6.982;2022-12-07T14:50:41;2.33;;;1.57;;
16242;SDS011;11719;51.052;6.982;2022-12-07T14:53:17;5.20;;;2.13;;
16242;SDS011;11719;51.052;6.982;2022-12-07T14:55:48;8.63;;;4.07;;
16242;SDS011;11719;51.052;6.982;2022-12-07T14:58:14;9.40;;;3.50;;
16242;SDS011;11719;51.052;6.982;2022-12-07T15:00:41;6.87;;;2.70;;
16242;SDS011;11719;51.052;6.982;2022-12-07T15:03:08;3.50;;;2.37;;
16242;SDS011;11719;51.052;6.982;2022-12-07T15:05:33;3.27;;;1.80;;
16242;SDS011;11719;51.052;6.982;2022-12-07T15:08:00;3.27;;;1.57;;
16242;SDS011;11719;51.052;6.982;2022-12-07T15:10:27;3.63;;;1.80;;
16242;SDS011;11719;51.052;6.982;2022-12-07T15:13:00;2.47;;;1.30;;
16242;SDS011;11719;51.052;6.982;2022-12-07T15:15:49;4.53;;;2.50;;
16242;SDS011;11719;51.052;6.982;2022-12-07T15:18:17;12.57;;;4.90;;
16242;SDS011;11719;51.052;6.982;2022-12-07T15:20:44;4.97;;;2.27;;
16242;SDS011;11719;51.052;6.982;2022-12-07T15:23:11;3.00;;;2.10;;
16242;SDS011;11719;51.052;6.982;2022-12-07T15:25:41;4.30;;;1.70;;
16242;SDS011;11719;51.052;6.982;2022-12-07T15:28:07;2.53;;;1.20;;
16242;SDS011;11719;51.052;6.982;2022-12-07T15:30:33;1.93;;;1.30;;
16242;SDS011;11719;51.052;6.982;2022-12-07T15:33:02;2.20;;;1.00;;
16242;SDS011;11719;51.052;6.982;2022-12-07T15:35:27;1.57;;;1.07;;
16242;SDS011;11719;51.052;6.982;2022-12-07T15:37:53;1.10;;;0.70;;
16242;SDS011;11719;51.052;6.982;2022-12-07T15:40:19;7.23;;;0.80;;
16242;SDS011;11719;51.052;6.982;2022-12-07T15:42:45;1.57;;;0.93;;
16242;SDS011;11719;51.052;6.982;2022-12-07T15:45:10;1.93;;;1.00;;
16242;SDS011;11719;51.052;6.982;2022-12-07T15:47:39;1.07;;;0.70;;
16242;SDS011;11719;51.052;6.982;2022-12-07T15:50:09;1.27;;;1.00;;
16242;SDS011;11719;51.052;6.982;2022-12-07T15:52:38;1.83;;;1.07;;
16242;SDS011;11719;51.052;6.982;2022-12-07T15:55:05;1.17;;;0.80;;
16242;SDS011;11719;51.052;6.982;2022-12-07T15:57:31;1.23;;;0.90;;
16242;SDS011;11719;51.052;6.982;2022-12-07T16:00:02;1.13;;;0.83;;
16242;SDS011;11719;51.052;6.982;2022-12-07T16:02:33;1.23;;;0.90;;
16242;SDS011;11719;51.052;6.982;2022-12-07T16:05:01;2.10;;;1.03;;
16242;SDS011;11719;51.052;6.982;2022-12-07T16:07:26;2.57;;;1.13;;
16242;SDS011;11719;51.052;6.982;2022-12-07T16:09:52;2.40;;;1.27;;
16242;SDS011;11719;51.052;6.982;2022-12-07T16:12:18;2.57;;;1.43;;
16242;SDS011;11719;51.052;6.982;2022-12-07T16:14:43;1.70;;;1.03;;
16242;SDS011;11719;51.052;6.982;2022-12-07T16:17:09;1.17;;;0.93;;
16242;SDS011;11719;51.052;6.982;2022-12-07T16:19:36;1.17;;;0.80;;
16242;SDS011;11719;51.052;6.982;2022-12-07T16:22:02;2.70;;;1.60;;
16242;SDS011;11719;51.052;6.982;2022-12-07T16:24:29;2.23;;;1.40;;
16242;SDS011;11719;51.052;6.982;2022-12-07T16:26:56;3.30;;;1.30;;
16242;SDS011;11719;51.052;6.982;2022-12-07T16:29:22;1.63;;;0.93;;
16242;SDS011;11719;51.052;6.982;2022-12-07T16:31:48;6.47;;;2.13;;
16242;SDS011;11719;51.052;6.982;2022-12-07T16:34:16;1.47;;;1.10;;
16242;SDS011;11719;51.052;6.982;2022-12-07T16:36:42;3.03;;;1.13;;
16242;SDS011;11719;51.052;6.982;2022-12-07T16:39:09;3.50;;;2.00;;
16242;SDS011;11719;51.052;6.982;2022-12-07T16:41:35;4.80;;;1.80;;
16242;SDS011;11719;51.052;6.982;2022-12-07T16:44:02;2.90;;;2.00;;
16242;SDS011;11719;51.052;6.982;2022-12-07T16:46:34;2.43;;;1.20;;
16242;SDS011;11719;51.052;6.982;2022-12-07T16:49:01;2.70;;;1.43;;
16242;SDS011;11719;51.052;6.982;2022-12-07T16:51:27;4.03;;;1.90;;
16242;SDS011;11719;51.052;6.982;2022-12-07T16:53:53;4.60;;;1.77;;
16242;SDS011;11719;51.052;6.982;2022-12-07T16:56:19;2.30;;;1.60;;
16242;SDS011;11719;51.052;6.982;2022-12-07T16:58:45;4.30;;;2.00;;
16242;SDS011;11719;51.052;6.982;2022-12-07T17:01:19;2.93;;;2.20;;
16242;SDS011;11719;51.052;6.982;2022-12-07T17:03:47;2.57;;;1.53;;
16242;SDS011;11719;51.052;6.982;2022-12-07T17:06:18;5.07;;;1.77;;
16242;SDS011;11719;51.052;6.982;2022-12-07T17:08:44;3.43;;;1.83;;
16242;SDS011;11719;51.052;6.982;2022-12-07T17:11:14;2.67;;;1.80;;
16242;SDS011;11719;51.052;6.982;2022-12-07T17:13:46;1.33;;;1.20;;
16242;SDS011;11719;51.052;6.982;2022-12-07T17:16:31;1.30;;;1.17;;
16242;SDS011;11719;51.052;6.982;2022-12-07T17:18:58;1.83;;;1.43;;